sensor_id;sensor_type;location;lat;lon;timestamp;P1;durP1;ratioP1;P2;durP2;ratioP2
76107;SDS011;64834;52.516;10.528;2024-01-06T00:02:16;26.45;;;10.40;;
76107;SDS011;64834;52.516;10.528;2024-01-06T00:04:41;28.63;;;10.43;;
76107;SDS011;64834;52.516;10.528;2024-01-06T00:07:07;28.08;;;10.57;;
76107;SDS011;64834;52.516;10.528;2024-01-06T00:09:32;25.95;;;9.75;;
76107;SDS011;64834;52.516;10.528;2024-01-06T00:11:58;25.92;;;9.43;;
76107;SDS011;64834;52.516;10.528;2024-01-06T00:14:23;29.35;;;9.88;;
76107;SDS011;64834;52.516;10.528;2024-01-06T00:16:48;28.25;;;11.40;;
76107;SDS011;64834;52.516;10.528;2024-01-06T00:19:14;25.25;;;9.88;;
76107;SDS011;64834;52.516;10.528;2024-01-06T00:21:39;28.73;;;10.38;;
76107;SDS011;64834;52.516;10.528;2024-01-06T00:24:04;26.67;;;9.98;;
76107;SDS011;64834;52.516;10.528;2024-01-06T00:26:30;26.35;;;10.18;;
76107;SDS011;64834;52.516;10.528;2024-01-06T00:28:55;25.52;;;9.90;;
76107;SDS011;64834;52.516;10.528;2024-01-06T00:31:20;27.65;;;9.40;;
76107;SDS011;64834;52.516;10.528;2024-01-06T00:33:46;29.40;;;9.73;;
76107;SDS011;64834;52.516;10.528;2024-01-06T00:36:11;29.02;;;10.43;;
76107;SDS011;64834;52.516;10.528;2024-01-06T00:38:37;26.63;;;11.88;;
76107;SDS011;64834;52.516;10.528;2024-01-06T00:41:02;32.15;;;10.63;;
76107;SDS011;64834;52.516;10.528;2024-01-06T00:43:27;27.77;;;9.48;;
76107;SDS011;64834;52.516;10.528;2024-01-06T00:45:53;29.02;;;10.18;;
76107;SDS011;64834;52.516;10.528;2024-01-06T00:48:18;30.23;;;10.90;;
76107;SDS011;64834;52.516;10.528;2024-01-06T00:50:43;29.50;;;10.07;;
76107;SDS011;64834;52.516;10.528;2024-01-06T00:53:08;28.50;;;11.30;;
76107;SDS011;64834;52.516;10.528;2024-01-06T00:55:34;29.83;;;10.38;;
76107;SDS011;64834;52.516;10.528;2024-01-06T00:57:59;30.65;;;10.60;;
76107;SDS011;64834;52.516;10.528;2024-01-06T01:00:25;29.55;;;10.27;;
76107;SDS011;64834;52.516;10.528;2024-01-06T01:02:52;35.53;;;11.80;;
76107;SDS011;64834;52.516;10.528;2024-01-06T01:05:17;27.33;;;10.20;;
76107;SDS011;64834;52.516;10.528;2024-01-06T01:07:42;30.98;;;10.93;;
76107;SDS011;64834;52.516;10.528;2024-01-06T01:10:08;35.85;;;11.60;;
76107;SDS011;64834;52.516;10.528;2024-01-06T01:12:34;30.60;;;10.70;;
76107;SDS011;64834;52.516;10.528;2024-01-06T01:15:00;36.25;;;10.68;;
76107;SDS011;64834;52.516;10.528;2024-01-06T01:17:25;33.03;;;11.15;;
76107;SDS011;64834;52.516;10.528;2024-01-06T01:19:50;31.00;;;10.93;;
76107;SDS011;64834;52.516;10.528;2024-01-06T01:22:16;34.90;;;10.52;;
76107;SDS011;64834;52.516;10.528;2024-01-06T01:24:41;32.53;;;11.30;;
76107;SDS011;64834;52.516;10.528;2024-01-06T01:27:07;30.73;;;10.55;;
76107;SDS011;64834;52.516;10.528;2024-01-06T01:29:32;30.17;;;11.02;;
76107;SDS011;64834;52.516;10.528;2024-01-06T01:31:58;31.23;;;10.80;;
76107;SDS011;64834;52.516;10.528;2024-01-06T01:34:23;29.27;;;10.10;;
76107;SDS011;64834;52.516;10.528;2024-01-06T01:36:48;28.45;;;10.45;;
76107;SDS011;64834;52.516;10.528;2024-01-06T01:39:14;34.53;;;10.75;;
76107;SDS011;64834;52.516;10.528;2024-01-06T01:41:39;29.45;;;10.23;;
76107;SDS011;64834;52.516;10.528;2024-01-06T01:44:05;32.20;;;10.70;;
76107;SDS011;64834;52.516;10.528;2024-01-06T01:46:30;32.75;;;10.52;;
76107;SDS011;64834;52.516;10.528;2024-01-06T01:48:58;34.70;;;11.80;;
76107;SDS011;64834;52.516;10.528;2024-01-06T01:51:26;32.40;;;11.27;;
76107;SDS011;64834;52.516;10.528;2024-01-06T01:53:54;27.95;;;10.45;;
76107;SDS011;64834;52.516;10.528;2024-01-06T01:56:20;29.33;;;10.07;;
76107;SDS011;64834;52.516;10.528;2024-01-06T01:58:46;32.67;;;10.55;;
76107;SDS011;64834;52.516;10.528;2024-01-06T02:01:12;31.92;;;10.27;;
76107;SDS011;64834;52.516;10.528;2024-01-06T02:03:40;27.95;;;9.38;;
76107;SDS011;64834;52.516;10.528;2024-01-06T02:06:06;29.35;;;9.68;;
76107;SDS011;64834;52.516;10.528;2024-01-06T02:08:31;32.60;;;10.95;;
76107;SDS011;64834;52.516;10.528;2024-01-06T02:10:57;30.52;;;11.05;;
76107;SDS011;64834;52.516;10.528;2024-01-06T02:13:22;27.92;;;9.63;;
76107;SDS011;64834;52.516;10.528;2024-01-06T02:15:48;28.75;;;9.30;;
76107;SDS011;64834;52.516;10.528;2024-01-06T02:18:13;36.60;;;11.48;;
76107;SDS011;64834;52.516;10.528;2024-01-06T02:20:39;31.80;;;9.43;;
76107;SDS011;64834;52.516;10.528;2024-01-06T02:23:11;29.80;;;11.00;;
76107;SDS011;64834;52.516;10.528;2024-01-06T02:25:36;33.65;;;11.27;;
76107;SDS011;64834;52.516;10.528;2024-01-06T02:28:02;33.15;;;9.88;;
76107;SDS011;64834;52.516;10.528;2024-01-06T02:30:27;30.50;;;10.07;;
76107;SDS011;64834;52.516;10.528;2024-01-06T02:32:52;31.25;;;10.52;;
76107;SDS011;64834;52.516;10.528;2024-01-06T02:35:18;33.28;;;10.48;;
76107;SDS011;64834;52.516;10.528;2024-01-06T02:37:43;29.80;;;9.82;;
76107;SDS011;64834;52.516;10.528;2024-01-06T02:40:09;24.92;;;8.63;;
76107;SDS011;64834;52.516;10.528;2024-01-06T02:42:34;29.80;;;10.65;;
76107;SDS011;64834;52.516;10.528;2024-01-06T02:45:00;31.60;;;10.77;;
76107;SDS011;64834;52.516;10.528;2024-01-06T02:47:25;26.95;;;9.40;;
76107;SDS011;64834;52.516;10.528;2024-01-06T02:49:50;30.50;;;10.45;;
76107;SDS011;64834;52.516;10.528;2024-01-06T02:52:16;29.70;;;9.90;;
76107;SDS011;64834;52.516;10.528;2024-01-06T02:54:41;29.52;;;9.82;;
76107;SDS011;64834;52.516;10.528;2024-01-06T02:57:06;22.98;;;8.85;;
76107;SDS011;64834;52.516;10.528;2024-01-06T02:59:31;29.25;;;10.40;;
76107;SDS011;64834;52.516;10.528;2024-01-06T03:01:58;29.50;;;10.55;;
76107;SDS011;64834;52.516;10.528;2024-01-06T03:04:24;30.08;;;11.40;;
76107;SDS011;64834;52.516;10.528;2024-01-06T03:06:49;28.58;;;10.40;;
76107;SDS011;64834;52.516;10.528;2024-01-06T03:09:18;27.30;;;10.70;;
76107;SDS011;64834;52.516;10.528;2024-01-06T03:11:44;28.98;;;10.07;;
76107;SDS011;64834;52.516;10.528;2024-01-06T03:14:10;27.83;;;9.32;;
76107;SDS011;64834;52.516;10.528;2024-01-06T03:16:35;27.45;;;9.55;;
76107;SDS011;64834;52.516;10.528;2024-01-06T03:19:00;29.02;;;9.90;;
76107;SDS011;64834;52.516;10.528;2024-01-06T03:21:25;27.85;;;10.00;;
76107;SDS011;64834;52.516;10.528;2024-01-06T03:23:51;30.58;;;10.05;;
76107;SDS011;64834;52.516;10.528;2024-01-06T03:26:17;27.30;;;10.63;;
76107;SDS011;64834;52.516;10.528;2024-01-06T03:28:42;33.00;;;10.20;;
76107;SDS011;64834;52.516;10.528;2024-01-06T03:31:08;25.92;;;9.95;;
76107;SDS011;64834;52.516;10.528;2024-01-06T03:33:33;27.30;;;10.52;;
76107;SDS011;64834;52.516;10.528;2024-01-06T03:35:58;27.60;;;9.18;;
76107;SDS011;64834;52.516;10.528;2024-01-06T03:38:29;29.13;;;8.90;;
76107;SDS011;64834;52.516;10.528;2024-01-06T03:40:54;29.13;;;9.55;;
76107;SDS011;64834;52.516;10.528;2024-01-06T03:43:19;30.13;;;10.57;;
76107;SDS011;64834;52.516;10.528;2024-01-06T03:45:45;27.05;;;8.43;;
76107;SDS011;64834;52.516;10.528;2024-01-06T03:48:10;29.35;;;9.50;;
76107;SDS011;64834;52.516;10.528;2024-01-06T03:50:35;22.85;;;8.98;;
76107;SDS011;64834;52.516;10.528;2024-01-06T03:53:01;26.80;;;9.30;;
76107;SDS011;64834;52.516;10.528;2024-01-06T03:55:26;32.92;;;11.15;;
76107;SDS011;64834;52.516;10.528;2024-01-06T03:57:51;30.08;;;10.02;;
76107;SDS011;64834;52.516;10.528;2024-01-06T04:00:17;29.70;;;9.98;;
76107;SDS011;64834;52.516;10.528;2024-01-06T04:02:42;27.35;;;10.15;;
76107;SDS011;64834;52.516;10.528;2024-01-06T04:05:07;27.10;;;9.15;;
76107;SDS011;64834;52.516;10.528;2024-01-06T04:07:33;28.90;;;10.05;;
76107;SDS011;64834;52.516;10.528;2024-01-06T04:09:58;26.13;;;9.50;;
76107;SDS011;64834;52.516;10.528;2024-01-06T04:12:23;24.10;;;8.65;;
76107;SDS011;64834;52.516;10.528;2024-01-06T04:14:49;22.80;;;8.25;;
76107;SDS011;64834;52.516;10.528;2024-01-06T04:17:14;26.98;;;8.80;;
76107;SDS011;64834;52.516;10.528;2024-01-06T04:19:39;25.33;;;9.43;;
76107;SDS011;64834;52.516;10.528;2024-01-06T04:22:05;26.00;;;9.43;;
76107;SDS011;64834;52.516;10.528;2024-01-06T04:24:30;26.20;;;9.63;;
76107;SDS011;64834;52.516;10.528;2024-01-06T04:26:55;27.70;;;9.73;;
76107;SDS011;64834;52.516;10.528;2024-01-06T04:29:21;27.75;;;9.57;;
76107;SDS011;64834;52.516;10.528;2024-01-06T04:31:46;26.15;;;9.05;;
76107;SDS011;64834;52.516;10.528;2024-01-06T04:34:11;26.05;;;9.30;;
76107;SDS011;64834;52.516;10.528;2024-01-06T04:36:37;28.95;;;9.82;;
76107;SDS011;64834;52.516;10.528;2024-01-06T04:39:02;23.75;;;9.52;;
76107;SDS011;64834;52.516;10.528;2024-01-06T04:41:27;23.75;;;9.90;;
76107;SDS011;64834;52.516;10.528;2024-01-06T04:43:53;29.55;;;9.70;;
76107;SDS011;64834;52.516;10.528;2024-01-06T04:46:18;24.02;;;9.38;;
76107;SDS011;64834;52.516;10.528;2024-01-06T04:48:43;26.20;;;9.75;;
76107;SDS011;64834;52.516;10.528;2024-01-06T04:51:09;23.85;;;9.30;;
76107;SDS011;64834;52.516;10.528;2024-01-06T04:53:35;29.05;;;9.65;;
76107;SDS011;64834;52.516;10.528;2024-01-06T04:56:01;26.15;;;9.35;;
76107;SDS011;64834;52.516;10.528;2024-01-06T04:58:26;26.48;;;9.25;;
76107;SDS011;64834;52.516;10.528;2024-01-06T05:00:52;23.08;;;8.18;;
76107;SDS011;64834;52.516;10.528;2024-01-06T05:03:17;25.40;;;9.52;;
76107;SDS011;64834;52.516;10.528;2024-01-06T05:05:43;20.95;;;7.60;;
76107;SDS011;64834;52.516;10.528;2024-01-06T05:08:08;26.30;;;9.68;;
76107;SDS011;64834;52.516;10.528;2024-01-06T05:10:34;31.58;;;10.40;;
76107;SDS011;64834;52.516;10.528;2024-01-06T05:12:59;24.65;;;9.30;;
76107;SDS011;64834;52.516;10.528;2024-01-06T05:15:24;30.50;;;9.98;;
76107;SDS011;64834;52.516;10.528;2024-01-06T05:17:50;21.55;;;8.55;;
76107;SDS011;64834;52.516;10.528;2024-01-06T05:20:15;25.05;;;9.23;;
76107;SDS011;64834;52.516;10.528;2024-01-06T05:22:40;22.52;;;7.85;;
76107;SDS011;64834;52.516;10.528;2024-01-06T05:25:06;29.73;;;9.60;;
76107;SDS011;64834;52.516;10.528;2024-01-06T05:27:31;22.77;;;8.60;;
76107;SDS011;64834;52.516;10.528;2024-01-06T05:29:57;21.63;;;8.75;;
76107;SDS011;64834;52.516;10.528;2024-01-06T05:32:22;18.55;;;6.95;;
76107;SDS011;64834;52.516;10.528;2024-01-06T05:34:48;20.05;;;8.32;;
76107;SDS011;64834;52.516;10.528;2024-01-06T05:37:13;20.65;;;7.57;;
76107;SDS011;64834;52.516;10.528;2024-01-06T05:39:39;23.27;;;8.70;;
76107;SDS011;64834;52.516;10.528;2024-01-06T05:42:05;20.30;;;7.93;;
76107;SDS011;64834;52.516;10.528;2024-01-06T05:44:30;20.40;;;8.15;;
76107;SDS011;64834;52.516;10.528;2024-01-06T05:46:56;20.67;;;6.95;;
76107;SDS011;64834;52.516;10.528;2024-01-06T05:49:21;17.02;;;6.95;;
76107;SDS011;64834;52.516;10.528;2024-01-06T05:51:47;22.08;;;7.95;;
76107;SDS011;64834;52.516;10.528;2024-01-06T05:54:12;20.23;;;7.53;;
76107;SDS011;64834;52.516;10.528;2024-01-06T05:56:38;19.48;;;7.85;;
76107;SDS011;64834;52.516;10.528;2024-01-06T05:59:03;18.77;;;7.43;;
76107;SDS011;64834;52.516;10.528;2024-01-06T06:01:28;20.33;;;7.80;;
76107;SDS011;64834;52.516;10.528;2024-01-06T06:03:54;19.73;;;7.00;;
76107;SDS011;64834;52.516;10.528;2024-01-06T06:06:19;18.58;;;7.72;;
76107;SDS011;64834;52.516;10.528;2024-01-06T06:08:45;17.08;;;6.82;;
76107;SDS011;64834;52.516;10.528;2024-01-06T06:11:10;16.30;;;6.78;;
76107;SDS011;64834;52.516;10.528;2024-01-06T06:13:37;16.85;;;6.82;;
76107;SDS011;64834;52.516;10.528;2024-01-06T06:16:03;18.52;;;6.65;;
76107;SDS011;64834;52.516;10.528;2024-01-06T06:18:29;17.23;;;7.22;;
76107;SDS011;64834;52.516;10.528;2024-01-06T06:20:54;16.17;;;6.43;;
76107;SDS011;64834;52.516;10.528;2024-01-06T06:23:20;16.45;;;7.47;;
76107;SDS011;64834;52.516;10.528;2024-01-06T06:25:45;19.45;;;7.13;;
76107;SDS011;64834;52.516;10.528;2024-01-06T06:28:11;17.15;;;6.82;;
76107;SDS011;64834;52.516;10.528;2024-01-06T06:30:36;18.98;;;7.20;;
76107;SDS011;64834;52.516;10.528;2024-01-06T06:33:01;15.85;;;6.78;;
76107;SDS011;64834;52.516;10.528;2024-01-06T06:35:27;16.48;;;6.43;;
76107;SDS011;64834;52.516;10.528;2024-01-06T06:37:52;15.18;;;6.50;;
76107;SDS011;64834;52.516;10.528;2024-01-06T06:40:17;14.88;;;6.03;;
76107;SDS011;64834;52.516;10.528;2024-01-06T06:42:42;14.48;;;6.30;;
76107;SDS011;64834;52.516;10.528;2024-01-06T06:45:08;13.63;;;6.43;;
76107;SDS011;64834;52.516;10.528;2024-01-06T06:47:36;13.82;;;6.18;;
76107;SDS011;64834;52.516;10.528;2024-01-06T06:50:01;13.93;;;6.28;;
76107;SDS011;64834;52.516;10.528;2024-01-06T06:52:27;16.77;;;7.07;;
76107;SDS011;64834;52.516;10.528;2024-01-06T06:54:52;13.27;;;6.65;;
76107;SDS011;64834;52.516;10.528;2024-01-06T06:57:18;14.63;;;5.95;;
76107;SDS011;64834;52.516;10.528;2024-01-06T06:59:43;13.43;;;5.68;;
76107;SDS011;64834;52.516;10.528;2024-01-06T07:02:09;13.70;;;5.57;;
76107;SDS011;64834;52.516;10.528;2024-01-06T07:04:35;14.30;;;5.55;;
76107;SDS011;64834;52.516;10.528;2024-01-06T07:07:00;12.30;;;5.78;;
76107;SDS011;64834;52.516;10.528;2024-01-06T07:09:25;11.13;;;5.70;;
76107;SDS011;64834;52.516;10.528;2024-01-06T07:11:51;13.85;;;5.10;;
76107;SDS011;64834;52.516;10.528;2024-01-06T07:14:16;12.27;;;5.70;;
76107;SDS011;64834;52.516;10.528;2024-01-06T07:16:42;10.20;;;4.55;;
76107;SDS011;64834;52.516;10.528;2024-01-06T07:19:07;13.77;;;5.40;;
76107;SDS011;64834;52.516;10.528;2024-01-06T07:21:33;13.63;;;5.50;;
76107;SDS011;64834;52.516;10.528;2024-01-06T07:23:58;12.32;;;5.68;;
76107;SDS011;64834;52.516;10.528;2024-01-06T07:26:24;15.10;;;6.32;;
76107;SDS011;64834;52.516;10.528;2024-01-06T07:28:49;15.95;;;6.45;;
76107;SDS011;64834;52.516;10.528;2024-01-06T07:31:14;16.23;;;6.25;;
76107;SDS011;64834;52.516;10.528;2024-01-06T07:33:39;16.00;;;6.40;;
76107;SDS011;64834;52.516;10.528;2024-01-06T07:36:05;17.88;;;6.95;;
76107;SDS011;64834;52.516;10.528;2024-01-06T07:38:30;18.88;;;7.20;;
76107;SDS011;64834;52.516;10.528;2024-01-06T07:40:56;22.10;;;6.20;;
76107;SDS011;64834;52.516;10.528;2024-01-06T07:43:22;18.40;;;6.60;;
76107;SDS011;64834;52.516;10.528;2024-01-06T07:45:47;18.40;;;7.53;;
76107;SDS011;64834;52.516;10.528;2024-01-06T07:48:13;16.52;;;6.43;;
76107;SDS011;64834;52.516;10.528;2024-01-06T07:50:39;19.40;;;7.53;;
76107;SDS011;64834;52.516;10.528;2024-01-06T07:53:04;22.10;;;7.57;;
76107;SDS011;64834;52.516;10.528;2024-01-06T07:55:29;20.15;;;7.45;;
76107;SDS011;64834;52.516;10.528;2024-01-06T07:57:54;18.67;;;8.80;;
76107;SDS011;64834;52.516;10.528;2024-01-06T08:00:20;19.95;;;8.00;;
76107;SDS011;64834;52.516;10.528;2024-01-06T08:02:45;20.80;;;9.65;;
76107;SDS011;64834;52.516;10.528;2024-01-06T08:05:11;20.65;;;7.15;;
76107;SDS011;64834;52.516;10.528;2024-01-06T08:07:36;22.95;;;8.43;;
76107;SDS011;64834;52.516;10.528;2024-01-06T08:10:02;19.65;;;7.78;;
76107;SDS011;64834;52.516;10.528;2024-01-06T08:12:30;22.00;;;8.35;;
76107;SDS011;64834;52.516;10.528;2024-01-06T08:14:55;19.98;;;6.88;;
76107;SDS011;64834;52.516;10.528;2024-01-06T08:17:21;19.55;;;8.07;;
76107;SDS011;64834;52.516;10.528;2024-01-06T08:19:46;21.15;;;7.72;;
76107;SDS011;64834;52.516;10.528;2024-01-06T08:22:12;18.60;;;8.20;;
76107;SDS011;64834;52.516;10.528;2024-01-06T08:24:38;14.80;;;6.88;;
76107;SDS011;64834;52.516;10.528;2024-01-06T08:27:03;20.75;;;8.43;;
76107;SDS011;64834;52.516;10.528;2024-01-06T08:29:29;18.80;;;7.55;;
76107;SDS011;64834;52.516;10.528;2024-01-06T08:31:54;20.67;;;7.65;;
76107;SDS011;64834;52.516;10.528;2024-01-06T08:34:19;17.90;;;7.43;;
76107;SDS011;64834;52.516;10.528;2024-01-06T08:36:45;22.23;;;8.30;;
76107;SDS011;64834;52.516;10.528;2024-01-06T08:39:11;17.75;;;7.30;;
76107;SDS011;64834;52.516;10.528;2024-01-06T08:41:36;19.05;;;7.38;;
76107;SDS011;64834;52.516;10.528;2024-01-06T08:44:02;19.77;;;8.18;;
76107;SDS011;64834;52.516;10.528;2024-01-06T08:46:27;17.08;;;7.80;;
76107;SDS011;64834;52.516;10.528;2024-01-06T08:48:52;19.65;;;7.90;;
76107;SDS011;64834;52.516;10.528;2024-01-06T08:51:18;22.13;;;8.93;;
76107;SDS011;64834;52.516;10.528;2024-01-06T08:53:45;17.55;;;8.32;;
76107;SDS011;64834;52.516;10.528;2024-01-06T08:56:11;19.92;;;8.25;;
76107;SDS011;64834;52.516;10.528;2024-01-06T08:58:36;19.92;;;8.27;;
76107;SDS011;64834;52.516;10.528;2024-01-06T09:01:01;19.55;;;8.48;;
76107;SDS011;64834;52.516;10.528;2024-01-06T09:03:26;20.23;;;8.73;;
76107;SDS011;64834;52.516;10.528;2024-01-06T09:05:52;22.63;;;8.90;;
76107;SDS011;64834;52.516;10.528;2024-01-06T09:08:19;19.67;;;7.70;;
76107;SDS011;64834;52.516;10.528;2024-01-06T09:10:44;20.88;;;8.60;;
76107;SDS011;64834;52.516;10.528;2024-01-06T09:13:09;23.40;;;9.27;;
76107;SDS011;64834;52.516;10.528;2024-01-06T09:15:35;25.65;;;10.15;;
76107;SDS011;64834;52.516;10.528;2024-01-06T09:18:00;22.52;;;8.38;;
76107;SDS011;64834;52.516;10.528;2024-01-06T09:20:26;22.17;;;9.05;;
76107;SDS011;64834;52.516;10.528;2024-01-06T09:22:52;26.38;;;10.88;;
76107;SDS011;64834;52.516;10.528;2024-01-06T09:25:17;28.50;;;10.32;;
76107;SDS011;64834;52.516;10.528;2024-01-06T09:27:43;28.25;;;11.00;;
76107;SDS011;64834;52.516;10.528;2024-01-06T09:30:08;30.48;;;10.18;;
76107;SDS011;64834;52.516;10.528;2024-01-06T09:32:34;30.50;;;11.27;;
76107;SDS011;64834;52.516;10.528;2024-01-06T09:34:59;24.02;;;8.73;;
76107;SDS011;64834;52.516;10.528;2024-01-06T09:37:24;32.22;;;13.02;;
76107;SDS011;64834;52.516;10.528;2024-01-06T09:39:50;33.92;;;11.98;;
76107;SDS011;64834;52.516;10.528;2024-01-06T09:42:15;25.38;;;9.32;;
76107;SDS011;64834;52.516;10.528;2024-01-06T09:44:41;32.67;;;12.07;;
76107;SDS011;64834;52.516;10.528;2024-01-06T09:47:06;33.80;;;11.40;;
76107;SDS011;64834;52.516;10.528;2024-01-06T09:49:36;28.15;;;10.38;;
76107;SDS011;64834;52.516;10.528;2024-01-06T09:52:04;28.83;;;11.52;;
76107;SDS011;64834;52.516;10.528;2024-01-06T09:54:38;28.83;;;10.60;;
76107;SDS011;64834;52.516;10.528;2024-01-06T09:57:07;37.97;;;12.02;;
76107;SDS011;64834;52.516;10.528;2024-01-06T09:59:32;33.97;;;12.32;;
76107;SDS011;64834;52.516;10.528;2024-01-06T10:01:59;40.88;;;11.88;;
76107;SDS011;64834;52.516;10.528;2024-01-06T10:04:25;29.48;;;11.30;;
76107;SDS011;64834;52.516;10.528;2024-01-06T10:06:51;31.83;;;12.25;;
76107;SDS011;64834;52.516;10.528;2024-01-06T10:09:16;36.28;;;12.13;;
76107;SDS011;64834;52.516;10.528;2024-01-06T10:11:41;30.85;;;11.40;;
76107;SDS011;64834;52.516;10.528;2024-01-06T10:14:08;30.00;;;10.63;;
76107;SDS011;64834;52.516;10.528;2024-01-06T10:16:33;37.65;;;12.52;;
76107;SDS011;64834;52.516;10.528;2024-01-06T10:19:00;32.67;;;11.57;;
76107;SDS011;64834;52.516;10.528;2024-01-06T10:21:26;35.00;;;11.13;;
76107;SDS011;64834;52.516;10.528;2024-01-06T10:23:53;30.83;;;11.93;;
76107;SDS011;64834;52.516;10.528;2024-01-06T10:26:19;28.20;;;10.68;;
76107;SDS011;64834;52.516;10.528;2024-01-06T10:28:44;27.10;;;11.18;;
76107;SDS011;64834;52.516;10.528;2024-01-06T10:31:09;28.95;;;11.50;;
76107;SDS011;64834;52.516;10.528;2024-01-06T10:33:35;31.83;;;11.77;;
76107;SDS011;64834;52.516;10.528;2024-01-06T10:36:00;29.15;;;10.73;;
76107;SDS011;64834;52.516;10.528;2024-01-06T10:38:26;29.38;;;10.63;;
76107;SDS011;64834;52.516;10.528;2024-01-06T10:40:58;32.20;;;11.20;;
76107;SDS011;64834;52.516;10.528;2024-01-06T10:43:34;33.30;;;12.07;;
76107;SDS011;64834;52.516;10.528;2024-01-06T10:46:02;30.77;;;11.15;;
76107;SDS011;64834;52.516;10.528;2024-01-06T10:48:30;26.38;;;10.15;;
76107;SDS011;64834;52.516;10.528;2024-01-06T10:50:57;30.30;;;10.60;;
76107;SDS011;64834;52.516;10.528;2024-01-06T10:53:23;29.95;;;11.55;;
76107;SDS011;64834;52.516;10.528;2024-01-06T10:55:52;27.95;;;9.82;;
76107;SDS011;64834;52.516;10.528;2024-01-06T10:58:17;28.63;;;11.80;;
76107;SDS011;64834;52.516;10.528;2024-01-06T11:00:43;30.42;;;10.77;;
76107;SDS011;64834;52.516;10.528;2024-01-06T11:03:09;29.45;;;9.75;;
76107;SDS011;64834;52.516;10.528;2024-01-06T11:05:35;25.50;;;9.05;;
76107;SDS011;64834;52.516;10.528;2024-01-06T11:08:01;27.65;;;9.68;;
76107;SDS011;64834;52.516;10.528;2024-01-06T11:10:26;26.85;;;11.20;;
76107;SDS011;64834;52.516;10.528;2024-01-06T11:13:13;31.42;;;10.90;;
76107;SDS011;64834;52.516;10.528;2024-01-06T11:15:46;29.92;;;11.15;;
76107;SDS011;64834;52.516;10.528;2024-01-06T11:23:37;31.27;;;10.05;;
76107;SDS011;64834;52.516;10.528;2024-01-06T11:26:03;29.60;;;10.25;;
76107;SDS011;64834;52.516;10.528;2024-01-06T11:28:28;27.83;;;11.55;;
76107;SDS011;64834;52.516;10.528;2024-01-06T11:31:09;29.13;;;11.15;;
76107;SDS011;64834;52.516;10.528;2024-01-06T11:33:41;31.92;;;11.38;;
76107;SDS011;64834;52.516;10.528;2024-01-06T11:36:09;25.13;;;9.02;;
76107;SDS011;64834;52.516;10.528;2024-01-06T11:38:38;20.02;;;8.38;;
76107;SDS011;64834;52.516;10.528;2024-01-06T11:41:07;25.23;;;9.80;;
76107;SDS011;64834;52.516;10.528;2024-01-06T11:43:34;27.73;;;9.48;;
76107;SDS011;64834;52.516;10.528;2024-01-06T11:46:01;26.90;;;9.77;;
76107;SDS011;64834;52.516;10.528;2024-01-06T11:48:28;27.83;;;9.07;;
76107;SDS011;64834;52.516;10.528;2024-01-06T11:50:54;26.90;;;10.25;;
76107;SDS011;64834;52.516;10.528;2024-01-06T11:53:20;26.92;;;10.07;;
76107;SDS011;64834;52.516;10.528;2024-01-06T11:55:48;22.55;;;9.00;;
76107;SDS011;64834;52.516;10.528;2024-01-06T11:58:16;25.05;;;9.73;;
76107;SDS011;64834;52.516;10.528;2024-01-06T12:00:41;28.45;;;9.80;;
76107;SDS011;64834;52.516;10.528;2024-01-06T12:03:07;20.85;;;8.38;;
76107;SDS011;64834;52.516;10.528;2024-01-06T12:05:32;24.02;;;8.95;;
76107;SDS011;64834;52.516;10.528;2024-01-06T12:07:58;21.88;;;9.63;;
76107;SDS011;64834;52.516;10.528;2024-01-06T12:10:31;25.40;;;9.02;;
76107;SDS011;64834;52.516;10.528;2024-01-06T12:12:58;23.10;;;8.35;;
76107;SDS011;64834;52.516;10.528;2024-01-06T12:15:25;26.33;;;8.45;;
76107;SDS011;64834;52.516;10.528;2024-01-06T12:17:51;26.38;;;9.80;;
76107;SDS011;64834;52.516;10.528;2024-01-06T12:20:17;21.35;;;9.35;;
76107;SDS011;64834;52.516;10.528;2024-01-06T12:22:42;26.23;;;10.68;;
76107;SDS011;64834;52.516;10.528;2024-01-06T12:25:09;24.23;;;9.75;;
76107;SDS011;64834;52.516;10.528;2024-01-06T12:27:34;25.02;;;9.40;;
76107;SDS011;64834;52.516;10.528;2024-01-06T12:29:59;30.27;;;10.63;;
76107;SDS011;64834;52.516;10.528;2024-01-06T12:32:25;28.85;;;10.75;;
76107;SDS011;64834;52.516;10.528;2024-01-06T12:34:50;25.23;;;10.18;;
76107;SDS011;64834;52.516;10.528;2024-01-06T12:37:16;26.35;;;10.15;;
76107;SDS011;64834;52.516;10.528;2024-01-06T12:39:42;25.20;;;10.57;;
76107;SDS011;64834;52.516;10.528;2024-01-06T12:42:07;22.48;;;9.43;;
76107;SDS011;64834;52.516;10.528;2024-01-06T12:44:33;26.10;;;9.40;;
76107;SDS011;64834;52.516;10.528;2024-01-06T12:47:02;24.33;;;9.77;;
76107;SDS011;64834;52.516;10.528;2024-01-06T12:49:27;24.30;;;8.80;;
76107;SDS011;64834;52.516;10.528;2024-01-06T12:51:53;26.80;;;9.70;;
76107;SDS011;64834;52.516;10.528;2024-01-06T12:54:19;24.40;;;7.85;;
76107;SDS011;64834;52.516;10.528;2024-01-06T12:56:44;21.33;;;7.95;;
76107;SDS011;64834;52.516;10.528;2024-01-06T12:59:10;29.63;;;9.70;;
76107;SDS011;64834;52.516;10.528;2024-01-06T13:01:36;21.42;;;8.15;;
76107;SDS011;64834;52.516;10.528;2024-01-06T13:04:01;27.50;;;10.30;;
76107;SDS011;64834;52.516;10.528;2024-01-06T13:06:26;26.98;;;10.07;;
76107;SDS011;64834;52.516;10.528;2024-01-06T13:08:52;23.10;;;9.68;;
76107;SDS011;64834;52.516;10.528;2024-01-06T13:11:18;25.25;;;9.77;;
76107;SDS011;64834;52.516;10.528;2024-01-06T13:13:43;28.63;;;10.95;;
76107;SDS011;64834;52.516;10.528;2024-01-06T13:16:08;34.33;;;10.75;;
76107;SDS011;64834;52.516;10.528;2024-01-06T13:18:34;28.65;;;9.85;;
76107;SDS011;64834;52.516;10.528;2024-01-06T13:21:00;30.60;;;11.27;;
76107;SDS011;64834;52.516;10.528;2024-01-06T13:23:26;28.00;;;11.02;;
76107;SDS011;64834;52.516;10.528;2024-01-06T13:25:52;27.40;;;10.93;;
76107;SDS011;64834;52.516;10.528;2024-01-06T13:28:17;32.95;;;12.77;;
76107;SDS011;64834;52.516;10.528;2024-01-06T13:30:42;31.08;;;12.23;;
76107;SDS011;64834;52.516;10.528;2024-01-06T13:33:08;29.73;;;10.25;;
76107;SDS011;64834;52.516;10.528;2024-01-06T13:35:36;30.00;;;10.98;;
76107;SDS011;64834;52.516;10.528;2024-01-06T13:38:02;32.97;;;12.55;;
76107;SDS011;64834;52.516;10.528;2024-01-06T13:40:29;27.75;;;10.38;;
76107;SDS011;64834;52.516;10.528;2024-01-06T13:42:54;26.80;;;10.18;;
76107;SDS011;64834;52.516;10.528;2024-01-06T13:45:20;30.27;;;11.10;;
76107;SDS011;64834;52.516;10.528;2024-01-06T13:47:45;30.88;;;11.68;;
76107;SDS011;64834;52.516;10.528;2024-01-06T13:50:12;34.35;;;13.02;;
76107;SDS011;64834;52.516;10.528;2024-01-06T13:52:38;29.98;;;12.10;;
76107;SDS011;64834;52.516;10.528;2024-01-06T13:55:04;24.90;;;9.82;;
76107;SDS011;64834;52.516;10.528;2024-01-06T13:57:30;33.20;;;12.25;;
76107;SDS011;64834;52.516;10.528;2024-01-06T13:59:55;31.50;;;13.40;;
76107;SDS011;64834;52.516;10.528;2024-01-06T14:02:22;33.80;;;12.73;;
76107;SDS011;64834;52.516;10.528;2024-01-06T14:04:47;33.13;;;11.80;;
76107;SDS011;64834;52.516;10.528;2024-01-06T14:07:13;30.02;;;11.10;;
76107;SDS011;64834;52.516;10.528;2024-01-06T14:09:38;27.00;;;9.85;;
76107;SDS011;64834;52.516;10.528;2024-01-06T14:12:03;29.70;;;11.30;;
76107;SDS011;64834;52.516;10.528;2024-01-06T14:14:31;29.63;;;9.68;;